createdAt,value
2023-05-04T00:00:33.440Z,100.00
2023-05-04T00:03:13.657Z,100.00
2023-05-04T00:05:42.187Z,100.00
2023-05-04T00:08:10.863Z,100.00
2023-05-04T00:10:39.222Z,100.00
2023-05-04T00:13:07.627Z,100.00
2023-05-04T00:15:36.101Z,100.00
2023-05-04T00:18:04.517Z,100.00
2023-05-04T00:20:32.858Z,100.00
2023-05-04T00:23:01.147Z,100.00
2023-05-04T00:25:29.335Z,100.00
2023-05-04T00:27:57.692Z,100.00
2023-05-04T00:30:25.950Z,100.00
2023-05-04T00:32:54.297Z,100.00
2023-05-04T00:35:22.697Z,100.00
2023-05-04T00:37:51.126Z,100.00
2023-05-04T00:40:19.666Z,100.00
2023-05-04T00:42:48.149Z,100.00
2023-05-04T00:45:16.503Z,100.00
2023-05-04T00:47:45.007Z,100.00
2023-05-04T00:50:13.390Z,100.00
2023-05-04T00:52:45.792Z,100.00
2023-05-04T00:55:14.606Z,100.00
2023-05-04T00:57:43.005Z,100.00
2023-05-04T01:00:13.483Z,100.00
2023-05-04T01:02:42.152Z,100.00
2023-05-04T01:05:12.657Z,100.00
2023-05-04T01:08:06.858Z,100.00
2023-05-04T01:10:43.092Z,100.00
2023-05-04T01:13:16.787Z,100.00
2023-05-04T01:18:38.108Z,100.00
2023-05-04T01:21:06.499Z,100.00
2023-05-04T01:23:34.800Z,100.00
2023-05-04T01:26:18.937Z,100.00
2023-05-04T01:28:57.285Z,100.00
2023-05-04T01:31:27.523Z,100.00
2023-05-04T01:33:56.640Z,100.00
2023-05-04T01:36:25.627Z,100.00
2023-05-04T01:38:55.572Z,100.00
2023-05-04T01:41:24.009Z,100.00
2023-05-04T01:43:52.580Z,100.00
2023-05-04T01:46:20.994Z,100.00
2023-05-04T01:48:49.286Z,100.00
2023-05-04T01:51:17.565Z,100.00
2023-05-04T01:53:45.872Z,100.00
2023-05-04T01:56:14.281Z,100.00
2023-05-04T01:58:42.540Z,100.00
2023-05-04T02:01:11.958Z,100.00
2023-05-04T02:03:41.137Z,100.00
2023-05-04T02:06:11.396Z,100.00
2023-05-04T02:08:39.778Z,100.00
2023-05-04T02:11:09.015Z,100.00
2023-05-04T02:13:37.380Z,100.00
2023-05-04T02:16:06.862Z,100.00
2023-05-04T02:18:36.047Z,100.00
2023-05-04T02:21:04.290Z,100.00
2023-05-04T02:23:32.660Z,100.00
2023-05-04T02:26:01.673Z,100.00
2023-05-04T02:28:29.954Z,100.00
2023-05-04T02:30:58.477Z,100.00
2023-05-04T02:33:26.850Z,100.00
2023-05-04T02:35:55.069Z,100.00
2023-05-04T02:38:23.382Z,100.00
2023-05-04T02:40:51.778Z,100.00
2023-05-04T02:43:20.169Z,100.00
2023-05-04T02:45:48.371Z,100.00
2023-05-04T02:48:16.843Z,100.00
2023-05-04T02:50:46.515Z,100.00
2023-05-04T02:53:14.868Z,100.00
2023-05-04T02:55:43.244Z,100.00
2023-05-04T02:58:11.449Z,100.00
2023-05-04T03:00:39.678Z,100.00
2023-05-04T03:03:08.076Z,100.00
2023-05-04T03:05:36.306Z,100.00
2023-05-04T03:08:04.836Z,100.00
2023-05-04T03:10:33.284Z,100.00
2023-05-04T03:13:06.324Z,100.00
2023-05-04T03:15:35.443Z,100.00
2023-05-04T03:18:04.098Z,100.00
2023-05-04T03:20:32.734Z,100.00
2023-05-04T03:23:02.314Z,100.00
2023-05-04T03:25:31.519Z,100.00
2023-05-04T03:28:01.075Z,100.00
2023-05-04T03:30:29.371Z,100.00
2023-05-04T03:32:58.933Z,100.00
2023-05-04T03:35:27.424Z,100.00
2023-05-04T03:37:56.200Z,100.00
2023-05-04T03:40:24.631Z,100.00
2023-05-04T03:42:54.128Z,100.00
2023-05-04T03:45:23.780Z,100.00
2023-05-04T03:47:52.670Z,100.00
2023-05-04T03:50:25.082Z,100.00
2023-05-04T03:52:53.335Z,100.00
2023-05-04T03:55:22.540Z,100.00
2023-05-04T03:57:51.637Z,100.00
2023-05-04T04:00:20.018Z,100.00
2023-05-04T04:02:53.676Z,100.00
2023-05-04T04:05:22.126Z,100.00
2023-05-04T04:07:51.416Z,100.00
2023-05-04T04:10:19.849Z,100.00
2023-05-04T04:12:48.314Z,100.00
2023-05-04T04:15:16.690Z,100.00
2023-05-04T04:17:45.053Z,100.00
2023-05-04T04:20:13.938Z,100.00
2023-05-04T04:22:42.324Z,100.00
2023-05-04T04:25:10.675Z,100.00
2023-05-04T04:27:39.158Z,100.00
2023-05-04T04:30:08.121Z,100.00
2023-05-04T04:32:37.553Z,100.00
2023-05-04T04:35:07.001Z,100.00
2023-05-04T04:37:35.221Z,100.00
2023-05-04T04:40:04.371Z,100.00
2023-05-04T04:42:33.846Z,100.00
2023-05-04T04:45:05.435Z,100.00
2023-05-04T04:47:34.091Z,100.00
2023-05-04T04:50:03.671Z,100.00
2023-05-04T04:52:33.302Z,100.00
2023-05-04T04:55:01.611Z,100.00
2023-05-04T04:57:31.829Z,100.00
2023-05-04T05:00:01.132Z,100.00
2023-05-04T05:02:33.800Z,100.00
2023-05-04T05:05:03.528Z,100.00
2023-05-04T05:07:37.471Z,100.00
2023-05-04T05:10:11.093Z,100.00
2023-05-04T05:12:39.650Z,100.00
2023-05-04T05:15:12.457Z,100.00
2023-05-04T05:17:44.667Z,100.00
2023-05-04T05:20:18.270Z,100.00
2023-05-04T05:22:46.865Z,100.00
2023-05-04T05:25:28.970Z,100.00
2023-05-04T05:28:02.466Z,100.00
2023-05-04T05:30:31.054Z,100.00
2023-05-04T05:33:04.491Z,100.00
2023-05-04T05:35:40.544Z,100.00
2023-05-04T05:38:15.402Z,100.00
2023-05-04T05:40:45.191Z,100.00
2023-05-04T05:43:23.491Z,100.00
2023-05-04T05:45:56.830Z,100.00
2023-05-04T05:48:25.379Z,100.00
2023-05-04T05:50:56.696Z,100.00
2023-05-04T05:53:28.541Z,100.00
2023-05-04T05:56:00.572Z,100.00
2023-05-04T05:58:33.777Z,100.00
2023-05-04T06:01:02.254Z,100.00
2023-05-04T06:03:31.443Z,100.00
2023-05-04T06:06:13.126Z,100.00
2023-05-04T06:08:47.886Z,100.00
2023-05-04T06:11:19.137Z,100.00
2023-05-04T06:13:48.991Z,100.00
2023-05-04T06:16:24.174Z,100.00
2023-05-04T06:18:52.808Z,100.00
2023-05-04T06:21:25.369Z,100.00
2023-05-04T06:23:55.706Z,100.00
2023-05-04T06:26:30.389Z,100.00
2023-05-04T06:29:00.279Z,100.00
2023-05-04T06:31:32.532Z,100.00
2023-05-04T06:34:02.374Z,100.00
2023-05-04T06:36:31.372Z,100.00
2023-05-04T06:39:06.966Z,100.00
2023-05-04T06:41:36.167Z,100.00
2023-05-04T06:44:06.141Z,100.00
2023-05-04T06:46:40.227Z,100.00
2023-05-04T06:49:08.749Z,100.00
2023-05-04T06:51:40.173Z,100.00
2023-05-04T06:54:11.678Z,100.00
2023-05-04T06:56:46.612Z,100.00
2023-05-04T06:59:17.044Z,100.00
2023-05-04T07:01:45.911Z,100.00
2023-05-04T07:04:16.900Z,100.00
2023-05-04T07:10:03.272Z,100.00
2023-05-04T07:12:34.658Z,100.00
2023-05-04T07:15:06.949Z,100.00
2023-05-04T07:17:39.136Z,100.00
2023-05-04T07:20:09.067Z,100.00
2023-05-04T07:22:38.159Z,99.21
2023-05-04T07:29:28.817Z,92.98
2023-05-04T07:32:34.093Z,91.76
2023-05-04T07:35:42.325Z,89.16
2023-05-04T07:38:11.391Z,89.29
2023-05-04T07:40:54.336Z,88.89
2023-05-04T07:44:08.823Z,88.96
2023-05-04T07:46:58.673Z,89.81
2023-05-04T07:50:03.308Z,89.57
2023-05-04T07:52:37.424Z,88.01
2023-05-04T07:55:25.350Z,87.17
2023-05-04T08:01:42.550Z,88.02
2023-05-04T08:04:22.542Z,86.47
2023-05-04T08:11:22.749Z,84.29
2023-05-04T08:14:23.490Z,84.33
2023-05-04T08:16:56.061Z,85.49
2023-05-04T08:19:24.649Z,83.15
2023-05-04T08:21:53.304Z,79.45
2023-05-04T08:24:21.892Z,77.44
2023-05-04T08:27:03.690Z,77.32
2023-05-04T08:29:38.560Z,77.48
2023-05-04T08:32:08.100Z,77.71
2023-05-04T08:34:37.517Z,76.83
2023-05-04T08:37:06.502Z,75.27
2023-05-04T08:39:35.042Z,73.99
2023-05-04T08:42:03.754Z,71.02
2023-05-04T08:44:39.266Z,70.21
2023-05-04T08:47:07.732Z,69.72
2023-05-04T08:49:36.079Z,70.97
2023-05-04T08:52:08.871Z,70.91
2023-05-04T08:54:39.938Z,72.79
2023-05-04T08:57:10.836Z,71.69
2023-05-04T08:59:39.871Z,71.20
2023-05-04T09:02:11.965Z,71.34
2023-05-04T09:04:40.387Z,70.62
2023-05-04T09:07:08.657Z,70.60
2023-05-04T09:09:37.007Z,67.19
2023-05-04T09:12:05.583Z,68.38
2023-05-04T09:14:35.816Z,67.95
2023-05-04T09:17:18.132Z,66.95
2023-05-04T09:19:46.506Z,66.68
2023-05-04T09:22:19.623Z,65.33
2023-05-04T09:24:48.271Z,64.87
2023-05-04T09:27:18.497Z,65.39
2023-05-04T09:29:54.478Z,65.07
2023-05-04T09:32:22.982Z,64.27
2023-05-04T09:34:53.310Z,64.24
2023-05-04T09:37:23.144Z,65.00
2023-05-04T09:39:58.619Z,65.97
2023-05-04T09:42:27.217Z,65.43
2023-05-04T09:45:05.142Z,66.06
2023-05-04T09:47:39.091Z,67.61
2023-05-04T09:50:27.697Z,65.30
2023-05-04T09:52:58.273Z,60.25
2023-05-04T09:55:28.507Z,58.63
2023-05-04T09:57:56.842Z,60.43
2023-05-04T10:00:25.691Z,57.69
2023-05-04T10:02:54.923Z,58.05
2023-05-04T10:05:41.935Z,55.93
2023-05-04T10:08:13.599Z,54.98
2023-05-04T10:10:43.592Z,57.53
2023-05-04T10:13:12.080Z,55.77
2023-05-04T10:15:56.773Z,52.19
2023-05-04T10:18:40.856Z,53.13
2023-05-04T10:21:44.531Z,47.62
2023-05-04T10:24:25.036Z,49.94
2023-05-04T10:27:00.717Z,50.02
2023-05-04T10:29:35.522Z,50.40
2023-05-04T10:32:05.613Z,49.92
2023-05-04T10:34:36.991Z,50.09
2023-05-04T10:37:18.506Z,49.46
2023-05-04T10:39:54.712Z,52.26
2023-05-04T10:42:26.424Z,53.39
2023-05-04T10:45:09.607Z,53.91
2023-05-04T10:47:43.476Z,52.74
2023-05-04T10:50:16.136Z,52.61
2023-05-04T10:52:57.664Z,52.37
2023-05-04T10:55:48.664Z,51.91
2023-05-04T10:58:29.036Z,50.76
2023-05-04T11:01:01.405Z,47.57
2023-05-04T11:03:41.552Z,49.59
2023-05-04T11:06:23.452Z,50.52
2023-05-04T11:09:02.802Z,49.84
2023-05-04T11:11:40.497Z,49.89
2023-05-04T11:14:11.168Z,47.62
2023-05-04T11:16:45.360Z,44.73
2023-05-04T11:19:25.663Z,45.94
2023-05-04T11:21:57.021Z,48.43
2023-05-04T11:24:26.542Z,46.30
2023-05-04T11:26:55.102Z,43.13
2023-05-04T11:29:23.726Z,44.27
2023-05-04T11:31:57.190Z,43.89
2023-05-04T11:34:32.516Z,43.27
2023-05-04T11:37:01.090Z,42.84
2023-05-04T11:39:33.723Z,42.08
2023-05-04T11:42:07.724Z,42.04
2023-05-04T11:44:46.703Z,43.22
2023-05-04T11:47:19.453Z,42.76
2023-05-04T11:49:48.392Z,41.33
2023-05-04T11:52:30.742Z,39.50
2023-05-04T11:55:03.655Z,39.00
2023-05-04T11:57:47.218Z,41.78
2023-05-04T12:00:19.089Z,39.36
2023-05-04T12:02:57.549Z,39.64
2023-05-04T12:05:36.004Z,39.81
2023-05-04T12:08:11.655Z,39.71
2023-05-04T12:11:16.749Z,39.96
2023-05-04T12:14:01.779Z,38.81
2023-05-04T12:16:35.506Z,39.27
2023-05-04T12:19:17.065Z,38.40
2023-05-04T12:22:23.964Z,41.59
2023-05-04T12:24:59.411Z,40.45
2023-05-04T12:27:29.221Z,38.84
2023-05-04T12:30:06.658Z,37.30
2023-05-04T12:32:37.388Z,36.44
2023-05-04T12:35:10.658Z,36.95
2023-05-04T12:37:54.832Z,36.93
2023-05-04T12:40:51.140Z,35.45
2023-05-04T12:43:35.718Z,37.82
2023-05-04T12:46:23.402Z,35.90
2023-05-04T12:49:12.260Z,35.50
2023-05-04T12:51:54.693Z,35.37
2023-05-04T12:54:32.656Z,34.74
2023-05-04T12:57:12.122Z,36.02
2023-05-04T13:00:00.810Z,36.24
2023-05-04T13:02:32.746Z,37.78
2023-05-04T13:05:08.470Z,35.92
2023-05-04T13:07:47.504Z,35.82
2023-05-04T13:10:20.180Z,37.58
2023-05-04T13:12:54.987Z,37.60
2023-05-04T13:15:31.132Z,37.05
2023-05-04T13:18:23.071Z,38.46
2023-05-04T13:21:00.927Z,37.94
2023-05-04T13:23:44.541Z,37.28
2023-05-04T13:26:33.010Z,38.09
2023-05-04T13:29:20.162Z,37.67
2023-05-04T13:31:56.626Z,38.29
2023-05-04T13:34:31.890Z,36.56
2023-05-04T13:37:38.372Z,36.72
2023-05-04T13:40:07.411Z,37.05
2023-05-04T13:42:44.730Z,37.38
2023-05-04T13:45:20.975Z,36.97
2023-05-04T13:48:01.063Z,37.46
2023-05-04T13:50:32.687Z,36.50
2023-05-04T13:53:02.820Z,36.02
2023-05-04T13:55:43.309Z,36.84
2023-05-04T13:58:25.393Z,36.36
2023-05-04T14:01:10.405Z,36.24
2023-05-04T14:04:08.266Z,36.89
2023-05-04T14:06:57.835Z,36.58
2023-05-04T14:09:29.193Z,38.69
2023-05-04T14:12:08.093Z,39.83
2023-05-04T14:14:53.293Z,40.58
2023-05-04T14:17:36.775Z,38.85
2023-05-04T14:20:22.828Z,38.08
2023-05-04T14:22:56.180Z,37.94
2023-05-04T14:25:28.115Z,37.83
2023-05-04T14:28:02.097Z,37.67
2023-05-04T14:30:39.299Z,38.47
2023-05-04T14:33:21.381Z,39.27
2023-05-04T14:35:49.869Z,38.67
2023-05-04T14:38:18.434Z,37.77
2023-05-04T14:40:50.125Z,38.55
2023-05-04T14:43:21.499Z,38.68
2023-05-04T14:45:51.361Z,38.45
2023-05-04T14:48:26.083Z,37.81
2023-05-04T14:51:16.328Z,38.74
2023-05-04T14:53:54.446Z,38.26
2023-05-04T14:56:33.419Z,38.53
2023-05-04T14:59:06.377Z,39.52
2023-05-04T15:01:39.851Z,39.68
2023-05-04T15:04:11.027Z,40.29
2023-05-04T15:06:40.052Z,39.70
2023-05-04T15:09:09.467Z,38.07
2023-05-04T15:11:54.233Z,39.58
2023-05-04T15:14:35.159Z,40.46
2023-05-04T15:17:15.773Z,40.34
2023-05-04T15:20:02.351Z,40.76
2023-05-04T15:22:30.877Z,39.92
2023-05-04T15:24:59.867Z,40.39
2023-05-04T15:27:31.381Z,39.71
2023-05-04T15:30:00.444Z,38.77
2023-05-04T15:32:37.202Z,38.71
2023-05-04T15:35:11.864Z,39.33
2023-05-04T15:37:56.022Z,39.48
2023-05-04T15:40:29.240Z,39.89
2023-05-04T15:43:16.390Z,40.36
2023-05-04T15:45:52.498Z,40.77
2023-05-04T15:48:27.991Z,40.42
2023-05-04T15:50:56.982Z,41.67
2023-05-04T15:53:44.023Z,42.47
2023-05-04T15:56:19.624Z,43.39
2023-05-04T15:59:01.500Z,41.71
2023-05-04T16:01:40.968Z,42.03
2023-05-04T16:04:15.841Z,42.15
2023-05-04T16:06:54.445Z,42.36
2023-05-04T16:09:27.488Z,42.62
2023-05-04T16:12:02.407Z,42.13
2023-05-04T16:14:35.871Z,42.32
2023-05-04T16:17:04.548Z,42.41
2023-05-04T16:19:33.135Z,43.01
2023-05-04T16:22:03.378Z,43.74
2023-05-04T16:24:34.178Z,44.15
2023-05-04T16:27:07.357Z,44.59
2023-05-04T16:29:36.795Z,43.58
2023-05-04T16:32:08.668Z,44.48
2023-05-04T16:34:37.409Z,44.56
2023-05-04T16:37:06.010Z,44.26
2023-05-04T16:39:36.369Z,44.28
2023-05-04T16:42:06.651Z,44.58
2023-05-04T16:44:35.706Z,44.86
2023-05-04T16:47:04.443Z,44.81
2023-05-04T16:49:36.101Z,45.11
2023-05-04T16:52:05.857Z,44.57
2023-05-04T16:54:37.213Z,44.93
2023-05-04T16:57:08.509Z,45.32
2023-05-04T16:59:41.360Z,45.62
2023-05-04T17:02:12.858Z,45.94
2023-05-04T17:04:45.445Z,46.09
2023-05-04T17:07:14.973Z,46.06
2023-05-04T17:09:43.381Z,46.21
2023-05-04T17:12:11.733Z,47.25
2023-05-04T17:14:39.909Z,47.64
2023-05-04T17:17:08.418Z,47.72
2023-05-04T17:19:36.727Z,48.43
2023-05-04T17:22:05.044Z,49.27
2023-05-04T17:24:33.386Z,50.61
2023-05-04T17:27:01.720Z,51.19
2023-05-04T17:29:31.631Z,52.18
2023-05-04T17:32:00.243Z,52.30
2023-05-04T17:34:28.515Z,52.85
2023-05-04T17:36:56.861Z,53.46
2023-05-04T17:39:25.298Z,54.17
2023-05-04T17:41:53.622Z,54.94
2023-05-04T17:44:24.873Z,55.68
2023-05-04T17:46:53.900Z,56.47
2023-05-04T17:49:22.119Z,56.70
2023-05-04T17:51:50.745Z,57.03
2023-05-04T17:54:19.080Z,57.87
2023-05-04T17:56:47.401Z,58.80
2023-05-04T17:59:17.084Z,59.46
2023-05-04T18:01:46.146Z,60.26
2023-05-04T18:04:14.390Z,61.11
2023-05-04T18:06:42.666Z,61.69
2023-05-04T18:09:11.901Z,62.20
2023-05-04T18:11:40.111Z,63.00
2023-05-04T18:14:08.414Z,63.66
2023-05-04T18:16:39.014Z,64.02
2023-05-04T18:19:07.368Z,64.61
2023-05-04T18:21:38.891Z,65.28
2023-05-04T18:24:07.550Z,66.07
2023-05-04T18:26:36.044Z,66.61
2023-05-04T18:29:17.813Z,67.16
2023-05-04T18:31:47.830Z,67.91
2023-05-04T18:34:16.032Z,68.76
2023-05-04T18:36:44.455Z,69.57
2023-05-04T18:39:13.830Z,70.26
2023-05-04T18:41:42.151Z,71.05
2023-05-04T18:44:16.761Z,71.87
2023-05-04T18:46:45.120Z,72.37
2023-05-04T18:49:13.748Z,72.94
2023-05-04T18:51:42.178Z,73.47
2023-05-04T18:54:10.438Z,74.08
2023-05-04T18:56:38.790Z,74.67
2023-05-04T18:59:07.969Z,75.33
2023-05-04T19:01:37.167Z,75.90
2023-05-04T19:04:05.817Z,76.41
2023-05-04T19:06:34.265Z,76.79
2023-05-04T19:09:02.658Z,77.34
2023-05-04T19:11:31.062Z,77.70
2023-05-04T19:13:59.486Z,78.09
2023-05-04T19:16:27.707Z,78.52
2023-05-04T19:18:56.068Z,78.99
2023-05-04T19:21:24.521Z,79.28
2023-05-04T19:23:52.803Z,79.84
2023-05-04T19:26:21.722Z,80.30
2023-05-04T19:28:50.144Z,80.75
2023-05-04T19:31:18.587Z,81.33
2023-05-04T19:33:48.752Z,81.68
2023-05-04T19:36:18.187Z,82.00
2023-05-04T19:38:46.719Z,82.27
2023-05-04T19:41:15.031Z,82.60
2023-05-04T19:43:43.431Z,82.78
2023-05-04T19:46:11.776Z,83.11
2023-05-04T19:48:40.080Z,83.29
2023-05-04T19:51:08.658Z,83.57
2023-05-04T19:53:36.993Z,83.86
2023-05-04T19:56:05.238Z,84.15
2023-05-04T19:58:33.651Z,84.46
2023-05-04T20:01:01.971Z,84.89
2023-05-04T20:03:30.381Z,85.06
2023-05-04T20:05:58.732Z,85.46
2023-05-04T20:08:27.011Z,85.83
2023-05-04T20:10:55.367Z,86.02
2023-05-04T20:13:25.836Z,86.25
2023-05-04T20:15:54.238Z,86.38
2023-05-04T20:18:23.468Z,86.68
2023-05-04T20:20:55.236Z,86.95
2023-05-04T20:23:26.113Z,87.20
2023-05-04T20:25:55.030Z,87.62
2023-05-04T20:28:23.553Z,87.95
2023-05-04T20:30:52.751Z,88.49
2023-05-04T20:33:21.414Z,88.92
2023-05-04T20:35:49.817Z,89.21
2023-05-04T20:38:18.150Z,89.58
2023-05-04T20:40:47.088Z,90.07
2023-05-04T20:43:15.634Z,90.60
2023-05-04T20:45:43.926Z,91.05
2023-05-04T20:48:12.424Z,91.39
2023-05-04T20:50:40.800Z,91.81
2023-05-04T20:53:09.125Z,92.10
2023-05-04T20:55:40.690Z,92.48
2023-05-04T20:58:09.429Z,92.82
2023-05-04T21:00:37.722Z,93.13
2023-05-04T21:03:06.258Z,93.56
2023-05-04T21:05:38.664Z,93.91
2023-05-04T21:08:07.103Z,94.32
2023-05-04T21:10:35.923Z,94.81
2023-05-04T21:13:04.310Z,95.09
2023-05-04T21:15:32.675Z,95.34
2023-05-04T21:18:00.950Z,95.61
2023-05-04T21:20:29.217Z,95.91
2023-05-04T21:22:57.816Z,96.24
2023-05-04T21:25:26.259Z,96.68
2023-05-04T21:27:58.036Z,96.78
2023-05-04T21:30:26.874Z,97.14
2023-05-04T21:32:55.744Z,97.36
2023-05-04T21:35:24.794Z,97.55
2023-05-04T21:37:53.154Z,97.88
2023-05-04T21:40:21.483Z,98.00
2023-05-04T21:42:49.732Z,98.28
2023-05-04T21:45:18.141Z,98.44
2023-05-04T21:47:46.956Z,98.80
2023-05-04T21:50:15.474Z,99.06
2023-05-04T21:52:43.893Z,99.18
2023-05-04T21:55:12.156Z,99.30
2023-05-04T21:57:40.445Z,99.53
2023-05-04T22:00:12.954Z,99.83
2023-05-04T22:02:41.318Z,99.97
2023-05-04T22:05:10.751Z,100.00
2023-05-04T22:07:39.027Z,100.00
2023-05-04T22:10:08.339Z,100.00
2023-05-04T22:12:37.092Z,100.00
2023-05-04T22:15:06.632Z,100.00
2023-05-04T22:17:35.090Z,100.00
2023-05-04T22:20:03.660Z,100.00
2023-05-04T22:22:31.951Z,100.00
2023-05-04T22:25:00.216Z,100.00
2023-05-04T22:27:28.605Z,100.00
2023-05-04T22:29:57.624Z,100.00
2023-05-04T22:32:26.014Z,100.00
2023-05-04T22:34:54.316Z,100.00
2023-05-04T22:37:22.533Z,100.00
2023-05-04T22:39:50.879Z,100.00
2023-05-04T22:42:19.207Z,100.00
2023-05-04T22:44:48.111Z,100.00
2023-05-04T22:47:16.736Z,100.00
2023-05-04T22:49:45.043Z,100.00
2023-05-04T22:52:13.502Z,100.00
2023-05-04T22:54:41.739Z,100.00
2023-05-04T22:57:10.158Z,100.00
2023-05-04T22:59:38.445Z,100.00
2023-05-04T23:02:07.362Z,100.00
2023-05-04T23:04:35.672Z,100.00
2023-05-04T23:07:03.965Z,100.00
2023-05-04T23:09:33.528Z,100.00
2023-05-04T23:12:02.638Z,100.00
2023-05-04T23:14:31.452Z,100.00
2023-05-04T23:16:59.673Z,100.00
2023-05-04T23:19:28.307Z,100.00
2023-05-04T23:22:00.049Z,100.00
2023-05-04T23:24:28.504Z,100.00
2023-05-04T23:26:58.035Z,100.00
2023-05-04T23:29:26.447Z,100.00
2023-05-04T23:31:54.994Z,100.00
2023-05-04T23:34:23.208Z,100.00
2023-05-04T23:36:54.997Z,100.00
2023-05-04T23:39:23.385Z,100.00
2023-05-04T23:41:51.658Z,100.00
2023-05-04T23:44:21.440Z,100.00
2023-05-04T23:46:49.834Z,100.00
2023-05-04T23:49:18.319Z,100.00
2023-05-04T23:51:47.074Z,100.00
2023-05-04T23:54:15.412Z,100.00
2023-05-04T23:56:43.707Z,100.00
2023-05-04T23:59:12.014Z,100.00
